createdAt,value
2022-10-19T00:01:05.977Z,4.75
2022-10-19T00:03:34.854Z,4.03
2022-10-19T00:06:29.515Z,7.32
2022-10-19T00:09:00.782Z,8.32
2022-10-19T00:11:29.745Z,3.67
2022-10-19T00:13:58.549Z,5.32
2022-10-19T00:16:31.735Z,3.15
2022-10-19T00:19:04.595Z,4.47
2022-10-19T00:21:32.005Z,4.25
2022-10-19T00:23:59.089Z,6.35
2022-10-19T00:26:27.918Z,3.05
2022-10-19T00:28:56.326Z,3.63
2022-10-19T00:31:24.123Z,2.78
2022-10-19T00:33:51.264Z,5.57
2022-10-19T00:36:34.057Z,4.07
2022-10-19T00:39:01.637Z,4.38
2022-10-19T00:41:31.847Z,7.20
2022-10-19T00:44:00.657Z,6.20
2022-10-19T00:46:30.515Z,8.30
2022-10-19T00:49:10.894Z,5.27
2022-10-19T00:51:42.583Z,8.98
2022-10-19T00:54:10.168Z,6.47
2022-10-19T00:56:40.831Z,9.23
2022-10-19T00:59:09.433Z,4.18
2022-10-19T01:01:36.830Z,6.68
2022-10-19T01:04:04.855Z,7.70
2022-10-19T01:06:33.368Z,5.85
2022-10-19T01:09:00.430Z,12.00
2022-10-19T01:11:49.060Z,6.03
2022-10-19T01:14:53.501Z,7.05
2022-10-19T01:17:40.700Z,4.88
2022-10-19T01:20:42.547Z,8.25
2022-10-19T01:23:31.599Z,11.10
2022-10-19T01:26:19.741Z,10.02
2022-10-19T01:28:58.669Z,8.15
2022-10-19T01:31:31.623Z,12.40
2022-10-19T01:34:04.508Z,8.73
2022-10-19T01:37:08.567Z,7.05
2022-10-19T01:39:44.288Z,8.52
2022-10-19T01:42:23.221Z,8.77
2022-10-19T01:44:56.773Z,5.78
2022-10-19T01:47:30.960Z,9.32
2022-10-19T01:50:10.178Z,12.30
2022-10-19T01:52:39.712Z,9.98
2022-10-19T01:55:09.819Z,8.32
2022-10-19T01:57:41.955Z,7.88
2022-10-19T02:00:12.369Z,6.07
2022-10-19T02:02:45.337Z,7.25
2022-10-19T02:05:13.544Z,9.73
2022-10-19T02:07:45.216Z,9.90
2022-10-19T02:10:12.395Z,6.88
2022-10-19T02:12:41.663Z,15.27
2022-10-19T02:15:17.390Z,8.70
2022-10-19T02:17:48.977Z,9.77
2022-10-19T02:20:17.095Z,12.35
2022-10-19T02:22:44.733Z,5.53
2022-10-19T02:25:12.950Z,9.40
2022-10-19T02:27:43.932Z,8.52
2022-10-19T02:30:17.469Z,9.73
2022-10-19T02:32:44.778Z,5.95
2022-10-19T02:35:14.655Z,4.75
2022-10-19T02:37:42.302Z,5.80
2022-10-19T02:40:10.492Z,8.40
2022-10-19T02:42:56.123Z,12.63
2022-10-19T02:45:33.812Z,9.50
2022-10-19T02:48:28.992Z,7.28
2022-10-19T02:50:56.084Z,11.82
2022-10-19T02:53:23.248Z,6.78
2022-10-19T02:55:51.745Z,7.65
2022-10-19T02:58:18.865Z,9.80
2022-10-19T03:00:45.934Z,8.02
2022-10-19T03:03:13.056Z,11.30
2022-10-19T03:05:40.209Z,7.68
2022-10-19T03:08:07.329Z,8.65
2022-10-19T03:10:34.479Z,12.73
2022-10-19T03:13:01.540Z,9.50
2022-10-19T03:15:30.027Z,7.95
2022-10-19T03:17:57.305Z,7.97
2022-10-19T03:20:24.543Z,7.13
2022-10-19T03:25:23.787Z,6.57
2022-10-19T03:27:53.514Z,11.40
2022-10-19T03:30:20.566Z,10.13
2022-10-19T03:32:47.645Z,10.68
2022-10-19T03:35:14.720Z,10.82
2022-10-19T03:37:41.804Z,11.38
2022-10-19T03:40:09.391Z,9.70
2022-10-19T03:42:36.608Z,7.47
2022-10-19T03:45:04.216Z,12.73
2022-10-19T03:47:31.807Z,11.45
2022-10-19T03:49:59.048Z,10.25
2022-10-19T03:52:26.175Z,10.05
2022-10-19T03:54:53.271Z,8.30
2022-10-19T03:57:20.380Z,9.45
2022-10-19T03:59:47.448Z,14.32
2022-10-19T04:02:14.464Z,7.75
2022-10-19T04:04:41.536Z,13.43
2022-10-19T04:07:08.567Z,18.88
2022-10-19T04:09:35.657Z,9.85
2022-10-19T04:12:03.475Z,8.23
2022-10-19T04:14:45.805Z,9.63
2022-10-19T04:17:20.066Z,19.05
2022-10-19T04:19:47.127Z,24.23
2022-10-19T04:22:14.139Z,8.32
2022-10-19T04:24:41.264Z,10.15
2022-10-19T04:27:08.333Z,13.00
2022-10-19T04:29:35.429Z,6.55
2022-10-19T04:32:02.512Z,12.00
2022-10-19T04:34:29.575Z,7.38
2022-10-19T04:36:59.546Z,4.20
2022-10-19T04:39:26.815Z,6.65
2022-10-19T04:41:53.950Z,5.95
2022-10-19T04:44:21.231Z,7.93
2022-10-19T04:46:48.320Z,5.47
2022-10-19T04:49:17.964Z,5.50
2022-10-19T04:51:49.167Z,8.02
2022-10-19T04:54:16.223Z,9.73
2022-10-19T04:56:43.783Z,9.20
2022-10-19T04:59:10.939Z,8.27
2022-10-19T05:01:40.430Z,9.30
2022-10-19T05:04:10.311Z,7.13
2022-10-19T05:06:38.199Z,10.32
2022-10-19T05:09:05.337Z,8.05
2022-10-19T05:11:32.358Z,12.73
2022-10-19T05:13:59.397Z,18.33
2022-10-19T05:16:26.557Z,13.82
2022-10-19T05:18:59.733Z,17.00
2022-10-19T05:21:28.847Z,13.63
2022-10-19T05:23:56.970Z,23.63
2022-10-19T05:26:27.281Z,21.15
2022-10-19T05:28:57.703Z,16.58
2022-10-19T05:31:27.674Z,23.25
2022-10-19T05:33:56.464Z,21.15
2022-10-19T05:36:29.345Z,15.70
2022-10-19T05:38:57.675Z,21.48
2022-10-19T05:41:26.449Z,24.23
2022-10-19T05:43:58.739Z,18.00
2022-10-19T05:46:27.617Z,12.98
2022-10-19T05:48:55.916Z,13.15
2022-10-19T05:51:24.034Z,15.75
2022-10-19T05:53:53.525Z,22.33
2022-10-19T05:56:23.780Z,27.75
2022-10-19T05:58:51.810Z,26.75
2022-10-19T06:01:20.033Z,20.67
2022-10-19T06:03:50.839Z,41.13
2022-10-19T06:06:18.210Z,37.40
2022-10-19T06:08:45.773Z,30.50
2022-10-19T06:11:16.826Z,20.60
2022-10-19T06:13:46.142Z,27.40
2022-10-19T06:16:15.562Z,17.13
2022-10-19T06:18:43.010Z,16.88
2022-10-19T06:21:16.519Z,29.88
2022-10-19T06:23:43.928Z,22.50
2022-10-19T06:26:13.378Z,17.25
2022-10-19T06:28:41.900Z,20.15
2022-10-19T06:31:09.819Z,24.13
2022-10-19T06:33:38.937Z,27.90
2022-10-19T06:36:13.817Z,21.55
2022-10-19T06:38:41.998Z,23.25
2022-10-19T06:41:10.030Z,21.17
2022-10-19T06:43:37.238Z,19.95
2022-10-19T06:46:09.949Z,31.63
2022-10-19T06:48:37.154Z,16.90
2022-10-19T06:51:07.519Z,16.83
2022-10-19T06:53:35.462Z,12.27
2022-10-19T06:56:04.569Z,8.88
2022-10-19T06:58:35.260Z,11.35
2022-10-19T07:01:02.480Z,7.30
2022-10-19T07:03:30.205Z,9.77
2022-10-19T07:06:00.462Z,7.90
2022-10-19T07:08:29.977Z,15.30
2022-10-19T07:11:00.210Z,3.85
2022-10-19T07:13:28.830Z,9.85
2022-10-19T07:16:19.794Z,12.77
2022-10-19T07:18:53.010Z,3.58
2022-10-19T07:21:22.281Z,18.70
2022-10-19T07:23:49.786Z,8.40
2022-10-19T07:26:21.466Z,10.60
2022-10-19T07:28:49.324Z,11.32
2022-10-19T07:31:20.245Z,11.27
2022-10-19T07:33:51.439Z,11.63
2022-10-19T07:36:18.489Z,6.90
2022-10-19T07:38:45.550Z,12.65
2022-10-19T07:41:15.488Z,13.77
2022-10-19T07:43:45.174Z,10.90
2022-10-19T07:46:15.515Z,10.27
2022-10-19T07:48:43.934Z,7.93
2022-10-19T07:51:12.402Z,11.48
2022-10-19T07:53:41.110Z,10.77
2022-10-19T07:56:11.527Z,5.75
2022-10-19T07:58:39.008Z,7.18
2022-10-19T08:01:12.136Z,10.23
2022-10-19T08:06:27.701Z,14.50
2022-10-19T08:08:55.378Z,8.40
2022-10-19T08:11:24.396Z,13.00
2022-10-19T08:13:52.271Z,13.23
2022-10-19T08:16:44.535Z,9.05
2022-10-19T08:19:13.991Z,12.60
2022-10-19T08:21:44.192Z,12.80
2022-10-19T08:24:13.543Z,10.63
2022-10-19T08:26:41.843Z,8.88
2022-10-19T08:29:18.106Z,11.73
2022-10-19T08:31:46.668Z,12.95
2022-10-19T08:34:14.589Z,12.18
2022-10-19T08:39:14.524Z,9.02
2022-10-19T08:41:53.259Z,9.55
2022-10-19T08:44:52.044Z,14.00
2022-10-19T08:47:31.369Z,11.73
2022-10-19T08:49:59.879Z,8.65
2022-10-19T08:52:36.048Z,9.48
2022-10-19T08:55:19.796Z,10.15
2022-10-19T08:57:53.691Z,20.15
2022-10-19T09:03:54.433Z,23.42
2022-10-19T09:06:45.594Z,24.85
2022-10-19T09:09:14.043Z,36.38
2022-10-19T09:11:49.179Z,45.95
2022-10-19T09:14:23.051Z,58.60
2022-10-19T09:16:50.116Z,22.67
2022-10-19T09:19:26.307Z,22.20
2022-10-19T09:21:57.771Z,22.42
2022-10-19T09:24:51.929Z,20.05
2022-10-19T09:27:30.236Z,24.13
2022-10-19T09:29:59.432Z,16.42
2022-10-19T09:32:38.597Z,13.77
2022-10-19T09:35:41.164Z,18.85
2022-10-19T09:38:08.487Z,18.70
2022-10-19T09:40:35.755Z,18.45
2022-10-19T09:43:19.581Z,19.42
2022-10-19T09:45:58.511Z,22.23
2022-10-19T09:48:47.883Z,18.55
2022-10-19T09:51:16.835Z,16.83
2022-10-19T09:53:50.023Z,15.57
2022-10-19T09:56:25.391Z,20.60
2022-10-19T09:58:57.753Z,17.88
2022-10-19T10:01:41.518Z,16.33
2022-10-19T10:04:14.546Z,14.05
2022-10-19T10:06:43.323Z,14.73
2022-10-19T10:09:17.625Z,16.95
2022-10-19T10:11:48.144Z,17.13
2022-10-19T10:14:23.679Z,11.75
2022-10-19T10:16:56.490Z,13.93
2022-10-19T10:19:28.895Z,17.42
2022-10-19T10:21:58.147Z,16.75
2022-10-19T10:24:28.595Z,13.88
2022-10-19T10:26:56.930Z,16.45
2022-10-19T10:29:28.102Z,17.30
2022-10-19T10:32:04.030Z,12.40
2022-10-19T10:34:50.071Z,9.45
2022-10-19T10:37:28.252Z,12.25
2022-10-19T10:40:00.334Z,10.68
2022-10-19T10:42:43.903Z,12.50
2022-10-19T10:45:20.379Z,12.67
2022-10-19T10:47:48.597Z,9.05
2022-10-19T10:50:22.462Z,9.60
2022-10-19T10:53:29.638Z,10.60
2022-10-19T10:55:57.469Z,6.57
2022-10-19T10:58:37.264Z,10.48
2022-10-19T11:01:13.301Z,6.07
2022-10-19T11:03:46.753Z,14.07
2022-10-19T11:06:17.142Z,8.23
2022-10-19T11:08:44.173Z,17.23
2022-10-19T11:11:17.269Z,10.77
2022-10-19T11:13:50.020Z,8.10
2022-10-19T11:16:19.895Z,6.28
2022-10-19T11:19:22.942Z,7.83
2022-10-19T11:22:26.392Z,6.20
2022-10-19T11:25:12.513Z,5.15
2022-10-19T11:27:56.159Z,6.93
2022-10-19T11:30:25.200Z,6.35
2022-10-19T11:33:01.556Z,5.55
2022-10-19T11:35:39.265Z,8.05
2022-10-19T11:38:30.078Z,8.57
2022-10-19T11:41:22.224Z,7.93
2022-10-19T11:43:58.452Z,9.10
2022-10-19T11:46:54.840Z,5.72
2022-10-19T11:49:27.536Z,8.57
2022-10-19T11:51:58.631Z,10.48
2022-10-19T11:54:43.666Z,10.27
2022-10-19T11:57:19.559Z,9.30
2022-10-19T12:00:08.147Z,6.78
2022-10-19T12:02:53.492Z,9.60
2022-10-19T12:05:35.616Z,8.07
2022-10-19T12:08:07.589Z,7.18
2022-10-19T12:11:23.696Z,9.85
2022-10-19T12:13:56.084Z,7.78
2022-10-19T12:16:31.006Z,6.95
2022-10-19T12:19:01.049Z,4.55
2022-10-19T12:21:30.004Z,8.18
2022-10-19T12:24:03.769Z,8.75
2022-10-19T12:26:35.506Z,7.10
2022-10-19T12:29:07.425Z,7.55
2022-10-19T12:31:36.110Z,7.70
2022-10-19T12:34:23.369Z,4.13
2022-10-19T12:36:55.055Z,7.38
2022-10-19T12:39:49.854Z,11.23
2022-10-19T12:42:26.337Z,6.75
2022-10-19T12:45:21.241Z,6.90
2022-10-19T12:48:13.110Z,7.78
2022-10-19T12:50:49.454Z,6.85
2022-10-19T12:53:44.670Z,6.32
2022-10-19T12:56:19.875Z,7.15
2022-10-19T12:58:50.869Z,7.82
2022-10-19T13:01:24.132Z,5.82
2022-10-19T13:04:16.329Z,7.30
2022-10-19T13:06:51.443Z,7.53
2022-10-19T13:09:33.811Z,11.45
2022-10-19T13:12:19.617Z,8.25
2022-10-19T13:14:58.938Z,8.77
2022-10-19T13:17:37.863Z,11.20
2022-10-19T13:20:14.408Z,10.30
2022-10-19T13:22:41.671Z,8.45
2022-10-19T13:25:28.087Z,6.32
2022-10-19T13:28:07.716Z,7.85
2022-10-19T13:30:43.234Z,10.25
2022-10-19T13:33:25.687Z,6.55
2022-10-19T13:36:13.514Z,6.40
2022-10-19T13:38:58.611Z,7.25
2022-10-19T13:41:46.904Z,7.93
2022-10-19T13:44:15.273Z,7.63
2022-10-19T13:46:55.537Z,7.90
2022-10-19T13:49:53.330Z,9.68
2022-10-19T13:52:26.499Z,7.43
2022-10-19T13:55:28.694Z,7.25
2022-10-19T13:58:17.696Z,9.20
2022-10-19T14:01:31.263Z,8.23
2022-10-19T14:04:24.238Z,8.70
2022-10-19T14:07:00.547Z,7.00
2022-10-19T14:09:37.333Z,9.80
2022-10-19T14:12:10.216Z,8.13
2022-10-19T14:14:44.842Z,8.88
2022-10-19T14:17:42.408Z,13.68
2022-10-19T14:20:42.039Z,9.02
2022-10-19T14:23:25.947Z,9.07
2022-10-19T14:26:05.646Z,16.90
2022-10-19T14:28:33.944Z,7.82
2022-10-19T14:31:03.972Z,8.93
2022-10-19T14:33:35.209Z,10.67
2022-10-19T14:36:02.806Z,15.30
2022-10-19T14:38:43.441Z,6.97
2022-10-19T14:41:29.214Z,7.95
2022-10-19T14:43:58.254Z,6.78
2022-10-19T14:46:33.523Z,11.73
2022-10-19T14:49:03.325Z,6.97
2022-10-19T14:51:33.353Z,6.07
2022-10-19T14:54:24.852Z,6.70
2022-10-19T14:57:08.273Z,6.80
2022-10-19T15:02:21.761Z,6.63
2022-10-19T15:04:49.979Z,6.50
2022-10-19T15:07:30.308Z,10.38
2022-10-19T15:10:01.249Z,2.72
2022-10-19T15:12:38.029Z,6.05
2022-10-19T15:15:28.021Z,5.43
2022-10-19T15:17:57.085Z,8.17
2022-10-19T15:20:28.121Z,5.63
2022-10-19T15:22:56.857Z,5.00
2022-10-19T15:25:29.678Z,5.88
2022-10-19T15:27:57.789Z,8.80
2022-10-19T15:30:31.508Z,4.47
2022-10-19T15:33:02.918Z,6.80
2022-10-19T15:35:33.268Z,6.40
2022-10-19T15:38:05.075Z,5.22
2022-10-19T15:40:35.509Z,6.82
2022-10-19T15:43:34.294Z,6.53
2022-10-19T15:46:04.397Z,5.57
2022-10-19T15:48:40.442Z,3.75
2022-10-19T15:51:23.245Z,5.63
2022-10-19T15:54:00.892Z,5.90
2022-10-19T15:56:30.608Z,5.93
2022-10-19T15:58:59.792Z,1.63
2022-10-19T16:01:29.481Z,4.88
2022-10-19T16:03:57.514Z,8.43
2022-10-19T16:06:30.241Z,8.35
2022-10-19T16:08:58.813Z,4.72
2022-10-19T16:11:27.088Z,6.10
2022-10-19T16:13:54.133Z,8.60
2022-10-19T16:16:26.807Z,7.50
2022-10-19T16:18:55.072Z,5.45
2022-10-19T16:21:25.704Z,5.30
2022-10-19T16:23:53.214Z,6.65
2022-10-19T16:26:21.156Z,14.60
2022-10-19T16:28:48.861Z,5.07
2022-10-19T16:31:17.079Z,10.20
2022-10-19T16:33:44.654Z,7.55
2022-10-19T16:36:13.117Z,5.10
2022-10-19T16:38:40.569Z,7.35
2022-10-19T16:41:10.180Z,7.97
2022-10-19T16:43:38.060Z,6.43
2022-10-19T16:46:05.925Z,6.35
2022-10-19T16:48:33.458Z,13.35
2022-10-19T16:51:10.425Z,9.25
2022-10-19T16:53:38.385Z,7.35
2022-10-19T16:56:08.092Z,6.45
2022-10-19T16:58:37.197Z,6.30
2022-10-19T17:01:17.981Z,6.05
2022-10-19T17:06:14.405Z,7.80
2022-10-19T17:09:23.247Z,5.43
2022-10-19T17:11:34.139Z,9.85
2022-10-19T17:14:04.039Z,5.47
2022-10-19T17:16:33.192Z,6.00
2022-10-19T17:19:02.990Z,6.57
2022-10-19T17:21:32.313Z,6.88
2022-10-19T17:24:01.600Z,6.45
2022-10-19T17:26:37.917Z,6.35
2022-10-19T17:29:06.407Z,2.25
2022-10-19T17:31:33.637Z,5.38
2022-10-19T17:34:01.983Z,5.10
2022-10-19T17:36:32.013Z,8.73
2022-10-19T17:39:02.009Z,8.00
2022-10-19T17:41:29.623Z,4.17
2022-10-19T17:43:57.202Z,8.27
2022-10-19T17:46:27.515Z,6.35
2022-10-19T17:48:54.941Z,3.42
2022-10-19T17:51:24.917Z,6.72
2022-10-19T17:53:55.422Z,7.23
2022-10-19T17:56:23.857Z,4.72
2022-10-19T17:58:51.359Z,6.70
2022-10-19T18:01:20.251Z,7.43
2022-10-19T18:03:48.681Z,6.82
2022-10-19T18:06:24.651Z,4.13
2022-10-19T18:08:54.903Z,7.57
2022-10-19T18:11:23.400Z,5.88
2022-10-19T18:13:51.600Z,7.13
2022-10-19T18:16:23.093Z,8.15
2022-10-19T18:18:53.277Z,5.13
2022-10-19T18:21:32.432Z,8.38
2022-10-19T18:24:35.481Z,7.40
2022-10-19T18:27:21.117Z,7.93
2022-10-19T18:29:52.701Z,3.33
2022-10-19T18:32:20.523Z,6.28
2022-10-19T18:34:47.712Z,8.88
2022-10-19T18:37:14.749Z,6.25
2022-10-19T18:39:41.856Z,7.97
2022-10-19T18:42:12.106Z,5.82
2022-10-19T18:44:39.394Z,8.90
2022-10-19T18:47:06.472Z,12.13
2022-10-19T18:49:33.655Z,8.27
2022-10-19T18:52:00.705Z,5.40
2022-10-19T18:54:28.199Z,9.27
2022-10-19T18:56:55.581Z,8.68
2022-10-19T18:59:23.159Z,7.97
2022-10-19T19:01:50.509Z,11.13
2022-10-19T19:04:17.636Z,10.93
2022-10-19T19:06:44.749Z,8.45
2022-10-19T19:09:13.106Z,7.00
2022-10-19T19:11:41.172Z,9.85
2022-10-19T19:14:14.296Z,6.68
2022-10-19T19:16:42.940Z,7.90
2022-10-19T19:19:12.072Z,8.55
2022-10-19T19:21:41.846Z,10.07
2022-10-19T19:24:10.520Z,6.30
2022-10-19T19:26:40.446Z,7.30
2022-10-19T19:29:08.175Z,9.73
2022-10-19T19:31:35.762Z,7.28
2022-10-19T19:34:05.878Z,5.95
2022-10-19T19:36:33.016Z,4.47
2022-10-19T19:39:00.245Z,4.85
2022-10-19T19:41:28.945Z,4.97
2022-10-19T19:43:58.071Z,5.43
2022-10-19T19:46:26.526Z,3.55
2022-10-19T19:49:01.814Z,5.35
2022-10-19T19:51:30.848Z,3.63
2022-10-19T19:53:58.847Z,5.38
2022-10-19T19:56:26.539Z,5.10
2022-10-19T19:58:58.116Z,5.68
2022-10-19T20:01:25.694Z,6.15
2022-10-19T20:03:52.889Z,5.10
2022-10-19T20:06:23.589Z,4.00
2022-10-19T20:08:54.594Z,4.55
2022-10-19T20:11:22.900Z,3.22
2022-10-19T20:13:50.369Z,2.38
2022-10-19T20:16:23.789Z,2.10
2022-10-19T20:19:00.290Z,8.05
2022-10-19T20:21:27.813Z,2.70
2022-10-19T20:23:54.927Z,5.95
2022-10-19T20:26:25.404Z,2.90
2022-10-19T20:28:53.119Z,3.30
2022-10-19T20:31:21.033Z,5.50
2022-10-19T20:33:48.433Z,5.93
2022-10-19T20:36:22.164Z,6.45
2022-10-19T20:38:54.643Z,3.88
2022-10-19T20:41:24.312Z,5.60
2022-10-19T20:43:53.747Z,3.25
2022-10-19T20:46:26.961Z,2.83
2022-10-19T20:48:55.988Z,2.72
2022-10-19T20:51:31.603Z,2.53
2022-10-19T20:54:02.014Z,3.92
2022-10-19T20:56:35.312Z,3.30
2022-10-19T20:59:07.686Z,3.00
2022-10-19T21:01:37.197Z,3.22
2022-10-19T21:04:06.434Z,3.58
2022-10-19T21:06:37.138Z,3.55
2022-10-19T21:09:04.589Z,3.00
2022-10-19T21:11:34.790Z,6.15
2022-10-19T21:14:13.844Z,4.60
2022-10-19T21:16:41.494Z,3.38
2022-10-19T21:19:17.898Z,3.47
2022-10-19T21:21:48.963Z,5.15
2022-10-19T21:24:20.334Z,3.88
2022-10-19T21:26:47.698Z,4.25
2022-10-19T21:29:16.198Z,2.55
2022-10-19T21:31:49.385Z,4.40
2022-10-19T21:34:29.744Z,3.70
2022-10-19T21:36:57.361Z,5.13
2022-10-19T21:39:24.517Z,2.13
2022-10-19T21:41:51.631Z,4.32
2022-10-19T21:44:19.382Z,2.97
2022-10-19T21:46:49.718Z,3.38
2022-10-19T21:49:16.982Z,3.13
2022-10-19T21:51:52.078Z,4.32
2022-10-19T21:54:22.158Z,2.00
2022-10-19T21:56:49.502Z,5.65
2022-10-19T21:59:17.319Z,7.70
2022-10-19T22:01:44.429Z,4.95
2022-10-19T22:04:14.106Z,5.13
2022-10-19T22:06:42.148Z,4.88
2022-10-19T22:09:12.304Z,4.90
2022-10-19T22:11:39.562Z,3.80
2022-10-19T22:14:06.724Z,6.15
2022-10-19T22:16:36.976Z,4.40
2022-10-19T22:19:05.766Z,7.97
2022-10-19T22:21:34.139Z,5.05
2022-10-19T22:24:05.507Z,10.65
2022-10-19T22:26:41.807Z,4.32
2022-10-19T22:29:09.038Z,3.25
2022-10-19T22:31:38.902Z,3.55
2022-10-19T22:34:11.082Z,4.68
2022-10-19T22:36:38.763Z,4.35
2022-10-19T22:39:06.932Z,7.22
2022-10-19T22:41:33.970Z,6.75
2022-10-19T22:44:01.141Z,5.53
2022-10-19T22:46:28.248Z,3.30
2022-10-19T22:48:55.335Z,5.88
2022-10-19T22:51:22.446Z,4.00
2022-10-19T22:53:49.478Z,4.13
2022-10-19T22:56:16.526Z,2.65
2022-10-19T22:58:43.571Z,3.08
2022-10-19T23:01:13.440Z,5.20
2022-10-19T23:03:40.941Z,3.28
2022-10-19T23:06:09.755Z,3.80
2022-10-19T23:08:37.595Z,2.70
2022-10-19T23:11:05.118Z,6.22
2022-10-19T23:13:32.361Z,5.40
2022-10-19T23:15:59.394Z,4.15
2022-10-19T23:18:26.615Z,2.50
2022-10-19T23:20:55.554Z,3.75
2022-10-19T23:23:23.136Z,5.10
2022-10-19T23:26:10.909Z,2.20
2022-10-19T23:28:40.536Z,3.25
2022-10-19T23:31:12.810Z,3.10
2022-10-19T23:33:40.630Z,3.97
2022-10-19T23:36:12.890Z,3.55
2022-10-19T23:38:40.522Z,7.28
2022-10-19T23:41:07.854Z,4.43
2022-10-19T23:46:07.346Z,2.83
2022-10-19T23:48:35.475Z,5.30
2022-10-19T23:51:08.389Z,3.35
2022-10-19T23:53:40.767Z,2.55
2022-10-19T23:56:29.477Z,1.70
2022-10-19T23:58:56.945Z,4.07
